createdAt,value
2018-02-13T00:00:25.942Z,12.30
2018-02-13T00:01:25.896Z,13.70
2018-02-13T00:02:25.822Z,13.20
2018-02-13T00:03:25.817Z,9.10
2018-02-13T00:04:25.730Z,11.70
2018-02-13T00:05:25.678Z,12.00
2018-02-13T00:06:25.624Z,11.50
2018-02-13T00:07:25.605Z,12.30
2018-02-13T00:08:25.573Z,12.20
2018-02-13T00:09:25.514Z,12.40
2018-02-13T00:10:25.460Z,12.30
2018-02-13T00:11:25.388Z,10.80
2018-02-13T00:12:25.347Z,11.00
2018-02-13T00:13:26.178Z,11.80
2018-02-13T00:14:25.244Z,10.80
2018-02-13T00:15:25.185Z,12.70
2018-02-13T00:16:25.328Z,11.90
2018-02-13T00:17:25.248Z,11.10
2018-02-13T00:18:25.115Z,11.70
2018-02-13T00:19:25.021Z,12.30
2018-02-13T00:20:25.003Z,13.40
2018-02-13T00:21:24.924Z,12.10
2018-02-13T00:22:24.857Z,11.80
2018-02-13T00:23:24.902Z,12.20
2018-02-13T00:24:24.760Z,12.10
2018-02-13T00:25:24.730Z,10.80
2018-02-13T00:26:24.656Z,10.20
2018-02-13T00:27:24.639Z,11.10
2018-02-13T00:28:24.585Z,11.80
2018-02-13T00:29:24.528Z,12.50
2018-02-13T00:30:24.578Z,14.40
2018-02-13T00:31:24.497Z,11.70
2018-02-13T00:32:24.500Z,12.30
2018-02-13T00:33:24.339Z,12.90
2018-02-13T00:34:24.497Z,12.50
2018-02-13T00:35:24.279Z,12.00
2018-02-13T00:36:24.189Z,12.60
2018-02-13T00:37:24.178Z,12.40
2018-02-13T00:38:24.072Z,13.10
2018-02-13T00:39:24.050Z,11.80
2018-02-13T00:40:23.992Z,12.50
2018-02-13T00:41:23.943Z,13.80
2018-02-13T00:42:24.681Z,13.60
2018-02-13T00:43:23.945Z,12.10
2018-02-13T00:44:23.941Z,11.90
2018-02-13T00:45:24.716Z,13.50
2018-02-13T00:46:23.717Z,13.70
2018-02-13T00:47:23.676Z,14.20
2018-02-13T00:48:23.651Z,13.30
2018-02-13T00:49:23.626Z,13.30
2018-02-13T00:50:23.528Z,13.50
2018-02-13T00:51:23.485Z,14.90
2018-02-13T00:52:23.402Z,13.50
2018-02-13T00:53:23.426Z,13.20
2018-02-13T00:54:23.336Z,13.70
2018-02-13T00:55:23.263Z,14.50
2018-02-13T00:56:23.243Z,15.30
2018-02-13T00:57:23.244Z,13.60
2018-02-13T00:58:23.143Z,13.70
2018-02-13T00:59:23.074Z,14.60
2018-02-13T01:00:23.012Z,14.30
2018-02-13T01:01:23.682Z,13.50
2018-02-13T01:02:22.930Z,13.80
2018-02-13T01:03:22.896Z,12.50
2018-02-13T01:04:22.851Z,13.40
2018-02-13T01:05:22.810Z,12.60
2018-02-13T01:06:22.781Z,13.50
2018-02-13T01:07:22.680Z,12.60
2018-02-13T01:08:22.640Z,13.10
2018-02-13T01:09:22.616Z,13.30
2018-02-13T01:10:22.549Z,12.60
2018-02-13T01:11:22.487Z,13.20
2018-02-13T01:12:22.450Z,14.10
2018-02-13T01:13:22.417Z,14.40
2018-02-13T01:14:22.422Z,14.50
2018-02-13T01:15:22.352Z,15.20
2018-02-13T01:16:22.258Z,15.20
2018-02-13T01:17:22.243Z,14.70
2018-02-13T01:18:22.169Z,14.70
2018-02-13T01:19:22.306Z,14.90
2018-02-13T01:20:22.080Z,14.70
2018-02-13T01:21:22.023Z,15.50
2018-02-13T01:22:22.677Z,15.00
2018-02-13T01:23:21.968Z,15.70
2018-02-13T01:24:21.856Z,15.60
2018-02-13T01:25:21.858Z,15.20
2018-02-13T01:26:21.792Z,15.50
2018-02-13T01:27:21.874Z,15.60
2018-02-13T01:28:21.864Z,17.60
2018-02-13T01:29:21.636Z,16.20
2018-02-13T01:30:21.611Z,15.60
2018-02-13T01:31:21.578Z,15.00
2018-02-13T01:32:21.515Z,15.40
2018-02-13T01:33:21.494Z,15.30
2018-02-13T01:34:21.435Z,15.80
2018-02-13T01:35:22.177Z,15.50
2018-02-13T01:36:21.306Z,16.90
2018-02-13T01:37:21.277Z,15.60
2018-02-13T01:38:21.304Z,15.90
2018-02-13T01:39:21.164Z,15.70
2018-02-13T01:40:21.129Z,16.90
2018-02-13T01:41:21.098Z,15.50
2018-02-13T01:42:21.018Z,15.30
2018-02-13T01:43:20.979Z,15.30
2018-02-13T01:44:20.928Z,15.60
2018-02-13T01:45:20.863Z,14.90
2018-02-13T01:46:20.853Z,15.60
2018-02-13T01:47:20.788Z,15.30
2018-02-13T01:48:20.736Z,16.10
2018-02-13T01:49:20.677Z,15.90
2018-02-13T01:50:20.648Z,15.10
2018-02-13T01:51:20.580Z,15.60
2018-02-13T01:52:20.582Z,15.40
2018-02-13T01:53:20.541Z,15.20
2018-02-13T01:54:20.436Z,16.50
2018-02-13T01:55:20.403Z,15.70
2018-02-13T01:56:20.365Z,16.00
2018-02-13T01:57:20.350Z,16.70
2018-02-13T01:58:20.291Z,15.20
2018-02-13T01:59:20.206Z,13.80
2018-02-13T02:00:20.178Z,14.30
2018-02-13T02:01:20.123Z,15.10
2018-02-13T02:02:20.682Z,15.00
2018-02-13T02:03:20.030Z,15.90
2018-02-13T02:04:19.954Z,15.90
2018-02-13T02:05:19.939Z,15.80
2018-02-13T02:06:19.929Z,14.90
2018-02-13T02:07:19.915Z,14.80
2018-02-13T02:08:19.780Z,15.50
2018-02-13T02:09:19.717Z,16.80
2018-02-13T02:10:19.708Z,15.00
2018-02-13T02:11:19.674Z,15.20
2018-02-13T02:12:19.598Z,16.10
2018-02-13T02:13:19.550Z,18.20
2018-02-13T02:14:19.538Z,17.50
2018-02-13T02:15:19.580Z,19.00
2018-02-13T02:16:19.410Z,15.20
2018-02-13T02:17:20.186Z,15.70
2018-02-13T02:18:19.320Z,17.30
2018-02-13T02:19:19.262Z,17.40
2018-02-13T02:20:19.381Z,18.20
2018-02-13T02:21:19.224Z,16.70
2018-02-13T02:22:19.128Z,15.80
2018-02-13T02:23:19.071Z,15.60
2018-02-13T02:24:19.037Z,16.30
2018-02-13T02:25:18.982Z,16.60
2018-02-13T02:26:18.926Z,16.50
2018-02-13T02:27:18.862Z,18.40
2018-02-13T02:28:18.827Z,17.40
2018-02-13T02:29:18.818Z,15.30
2018-02-13T02:30:18.775Z,16.90
2018-02-13T02:31:18.763Z,17.40
2018-02-13T02:32:18.647Z,19.10
2018-02-13T02:33:18.600Z,17.10
2018-02-13T02:34:18.574Z,17.30
2018-02-13T02:35:18.504Z,16.50
2018-02-13T02:36:18.495Z,16.50
2018-02-13T02:37:18.418Z,16.20
2018-02-13T02:38:18.400Z,17.30
2018-02-13T02:39:18.335Z,17.30
2018-02-13T02:40:18.310Z,16.00
2018-02-13T02:41:18.229Z,15.50
2018-02-13T02:42:18.406Z,16.40
2018-02-13T02:43:18.125Z,16.80
2018-02-13T02:44:18.080Z,15.70
2018-02-13T02:45:18.057Z,14.30
2018-02-13T02:46:18.014Z,15.80
2018-02-13T02:47:17.976Z,16.60
2018-02-13T02:48:17.902Z,17.40
2018-02-13T02:49:17.855Z,16.40
2018-02-13T02:50:17.823Z,16.10
2018-02-13T02:51:17.747Z,17.70
2018-02-13T02:52:17.699Z,18.50
2018-02-13T02:53:17.648Z,15.30
2018-02-13T02:54:17.614Z,16.60
2018-02-13T02:55:17.570Z,17.30
2018-02-13T02:56:17.560Z,16.80
2018-02-13T02:57:17.455Z,14.20
2018-02-13T02:58:17.419Z,14.80
2018-02-13T02:59:17.401Z,15.20
2018-02-13T03:00:17.367Z,16.80
2018-02-13T03:01:17.298Z,19.10
2018-02-13T03:02:17.260Z,18.40
2018-02-13T03:03:17.280Z,14.70
2018-02-13T03:04:18.186Z,14.70
2018-02-13T03:05:17.097Z,16.40
2018-02-13T03:06:17.102Z,17.90
2018-02-13T03:07:17.002Z,16.90
2018-02-13T03:08:16.999Z,17.30
2018-02-13T03:09:17.697Z,17.50
2018-02-13T03:10:16.877Z,18.00
2018-02-13T03:11:16.821Z,17.70
2018-02-13T03:12:16.770Z,17.10
2018-02-13T03:13:16.777Z,16.90
2018-02-13T03:14:16.667Z,17.20
2018-02-13T03:15:16.668Z,16.30
2018-02-13T03:16:16.580Z,16.20
2018-02-13T03:17:16.580Z,16.20
2018-02-13T03:18:16.598Z,15.00
2018-02-13T03:19:16.476Z,15.30
2018-02-13T03:20:17.194Z,15.40
2018-02-13T03:21:16.495Z,15.50
2018-02-13T03:22:16.334Z,15.00
2018-02-13T03:23:16.262Z,15.10
2018-02-13T03:24:16.229Z,16.10
2018-02-13T03:25:16.186Z,15.90
2018-02-13T03:26:16.141Z,16.60
2018-02-13T03:27:16.078Z,15.60
2018-02-13T03:28:16.023Z,14.50
2018-02-13T03:29:15.989Z,15.20
2018-02-13T03:30:15.952Z,16.20
2018-02-13T03:31:15.863Z,16.70
2018-02-13T03:32:15.844Z,16.70
2018-02-13T03:33:15.779Z,16.40
2018-02-13T03:34:15.976Z,14.70
2018-02-13T03:35:15.703Z,16.00
2018-02-13T03:36:15.667Z,15.50
2018-02-13T03:37:15.649Z,15.90
2018-02-13T03:38:15.691Z,16.20
2018-02-13T03:39:15.555Z,15.80
2018-02-13T03:40:15.461Z,16.60
2018-02-13T03:41:15.402Z,15.80
2018-02-13T03:42:15.384Z,16.90
2018-02-13T03:43:15.423Z,16.30
2018-02-13T03:44:15.272Z,17.00
2018-02-13T03:45:15.249Z,17.20
2018-02-13T03:46:15.188Z,17.60
2018-02-13T03:47:15.153Z,16.90
2018-02-13T03:48:15.105Z,17.20
2018-02-13T03:49:15.078Z,15.70
2018-02-13T03:50:15.008Z,17.30
2018-02-13T03:51:14.958Z,17.30
2018-02-13T03:52:14.929Z,17.20
2018-02-13T03:53:14.867Z,17.10
2018-02-13T03:54:14.813Z,16.30
2018-02-13T03:55:14.773Z,16.30
2018-02-13T03:56:14.729Z,16.40
2018-02-13T03:57:14.685Z,17.50
2018-02-13T03:58:14.748Z,17.30
2018-02-13T03:59:14.641Z,17.80
2018-02-13T04:00:14.532Z,15.60
2018-02-13T04:01:14.507Z,16.40
2018-02-13T04:02:14.443Z,17.20
2018-02-13T04:03:14.379Z,18.60
2018-02-13T04:04:14.330Z,16.70
2018-02-13T04:05:15.196Z,16.70
2018-02-13T04:06:14.272Z,16.10
2018-02-13T04:07:14.198Z,16.10
2018-02-13T04:08:14.311Z,16.90
2018-02-13T04:09:14.126Z,16.50
2018-02-13T04:10:14.082Z,16.60
2018-02-13T04:11:14.063Z,16.10
2018-02-13T04:12:14.002Z,16.90
2018-02-13T04:13:13.914Z,15.80
2018-02-13T04:14:13.860Z,15.60
2018-02-13T04:15:13.818Z,16.80
2018-02-13T04:16:14.692Z,16.30
2018-02-13T04:17:13.758Z,16.80
2018-02-13T04:18:13.721Z,15.70
2018-02-13T04:19:13.666Z,16.40
2018-02-13T04:20:13.610Z,17.10
2018-02-13T04:21:13.541Z,16.30
2018-02-13T04:22:13.514Z,17.70
2018-02-13T04:23:13.473Z,16.40
2018-02-13T04:24:13.443Z,16.40
2018-02-13T04:25:13.620Z,17.60
2018-02-13T04:26:13.338Z,17.80
2018-02-13T04:27:13.261Z,17.30
2018-02-13T04:28:13.237Z,16.20
2018-02-13T04:29:13.202Z,16.20
2018-02-13T04:30:13.184Z,16.00
2018-02-13T04:31:13.112Z,17.00
2018-02-13T04:32:13.055Z,19.00
2018-02-13T04:33:12.996Z,17.90
2018-02-13T04:34:12.956Z,17.80
2018-02-13T04:35:12.896Z,15.30
2018-02-13T04:36:12.835Z,15.40
2018-02-13T04:37:12.816Z,15.20
2018-02-13T04:38:12.806Z,16.60
2018-02-13T04:39:12.731Z,17.50
2018-02-13T04:40:12.659Z,18.00
2018-02-13T04:41:12.621Z,17.70
2018-02-13T04:42:12.551Z,17.10
2018-02-13T04:43:12.542Z,16.60
2018-02-13T04:44:12.514Z,15.60
2018-02-13T04:45:12.443Z,15.90
2018-02-13T04:46:12.371Z,17.40
2018-02-13T04:47:12.372Z,18.90
2018-02-13T04:48:12.377Z,17.00
2018-02-13T04:49:12.254Z,16.10
2018-02-13T04:50:12.213Z,17.50
2018-02-13T04:51:12.149Z,17.30
2018-02-13T04:52:12.100Z,17.10
2018-02-13T04:53:12.122Z,17.50
2018-02-13T04:54:12.180Z,16.00
2018-02-13T04:55:11.947Z,18.00
2018-02-13T04:56:11.942Z,17.80
2018-02-13T04:57:11.876Z,18.20
2018-02-13T04:58:11.836Z,16.50
2018-02-13T04:59:11.846Z,15.00
2018-02-13T05:00:11.751Z,16.20
2018-02-13T05:01:11.725Z,17.00
2018-02-13T05:02:11.629Z,18.20
2018-02-13T05:03:11.611Z,17.60
2018-02-13T05:04:11.696Z,17.70
2018-02-13T05:05:11.640Z,17.40
2018-02-13T05:06:11.595Z,18.30
2018-02-13T05:07:11.432Z,18.00
2018-02-13T05:08:11.374Z,18.60
2018-02-13T05:09:11.301Z,18.40
2018-02-13T05:10:11.256Z,18.80
2018-02-13T05:11:11.213Z,17.40
2018-02-13T05:12:11.182Z,16.70
2018-02-13T05:13:11.193Z,18.30
2018-02-13T05:14:11.065Z,16.90
2018-02-13T05:15:11.054Z,16.00
2018-02-13T05:16:10.982Z,17.50
2018-02-13T05:17:10.927Z,17.90
2018-02-13T05:18:10.865Z,18.80
2018-02-13T05:19:10.854Z,18.60
2018-02-13T05:20:10.778Z,17.70
2018-02-13T05:21:10.755Z,18.30
2018-02-13T05:22:10.695Z,17.50
2018-02-13T05:23:10.671Z,19.40
2018-02-13T05:24:10.820Z,17.60
2018-02-13T05:25:10.553Z,17.70
2018-02-13T05:26:10.512Z,16.90
2018-02-13T05:27:10.439Z,16.40
2018-02-13T05:28:10.405Z,19.30
2018-02-13T05:29:10.402Z,17.60
2018-02-13T05:30:10.312Z,15.10
2018-02-13T05:31:10.303Z,15.40
2018-02-13T05:32:10.280Z,15.30
2018-02-13T05:33:10.177Z,16.60
2018-02-13T05:34:10.328Z,16.80
2018-02-13T05:35:10.061Z,18.30
2018-02-13T05:36:10.031Z,19.50
2018-02-13T05:37:10.704Z,19.10
2018-02-13T05:38:09.942Z,19.20
2018-02-13T05:39:09.897Z,17.80
2018-02-13T05:40:09.831Z,16.30
2018-02-13T05:41:09.782Z,15.90
2018-02-13T05:42:09.753Z,16.40
2018-02-13T05:43:09.834Z,17.00
2018-02-13T05:44:09.675Z,17.20
2018-02-13T05:45:09.591Z,17.40
2018-02-13T05:46:09.543Z,16.40
2018-02-13T05:47:09.524Z,14.90
2018-02-13T05:48:09.468Z,15.80
2018-02-13T05:49:09.501Z,17.60
2018-02-13T05:50:09.481Z,17.60
2018-02-13T05:51:09.332Z,16.50
2018-02-13T05:52:09.258Z,17.90
2018-02-13T05:53:09.200Z,18.70
2018-02-13T05:54:09.210Z,17.60
2018-02-13T05:55:09.126Z,17.40
2018-02-13T05:56:09.090Z,17.60
2018-02-13T05:57:09.187Z,14.60
2018-02-13T05:58:09.038Z,16.90
2018-02-13T05:59:08.989Z,17.50
2018-02-13T06:00:08.905Z,17.90
2018-02-13T06:01:08.878Z,16.20
2018-02-13T06:02:08.931Z,17.60
2018-02-13T06:03:08.767Z,16.70
2018-02-13T06:04:08.714Z,18.50
2018-02-13T06:05:08.648Z,17.90
2018-02-13T06:06:08.626Z,17.30
2018-02-13T06:07:08.592Z,19.10
2018-02-13T06:08:08.525Z,17.90
2018-02-13T06:09:08.447Z,18.10
2018-02-13T06:10:08.418Z,18.40
2018-02-13T06:11:08.537Z,18.70
2018-02-13T06:12:08.484Z,18.80
2018-02-13T06:13:08.255Z,20.90
2018-02-13T06:14:08.201Z,19.10
2018-02-13T06:15:08.167Z,17.30
2018-02-13T06:16:08.168Z,18.10
2018-02-13T06:17:08.062Z,18.10
2018-02-13T06:18:08.015Z,17.30
2018-02-13T06:19:07.971Z,16.20
2018-02-13T06:20:07.930Z,19.40
2018-02-13T06:21:07.904Z,19.10
2018-02-13T06:22:07.953Z,20.10
2018-02-13T06:23:07.780Z,21.20
2018-02-13T06:24:07.853Z,20.80
2018-02-13T06:25:07.733Z,21.00
2018-02-13T06:26:07.635Z,23.10
2018-02-13T06:27:07.565Z,20.80
2018-02-13T06:28:07.535Z,19.70
2018-02-13T06:29:07.512Z,21.50
2018-02-13T06:30:07.486Z,25.10
2018-02-13T06:31:07.473Z,20.80
2018-02-13T06:32:09.459Z,17.50
2018-02-13T06:33:07.373Z,21.70
2018-02-13T06:34:07.262Z,23.40
2018-02-13T06:35:07.711Z,22.10
2018-02-13T06:36:07.140Z,23.70
2018-02-13T06:37:07.140Z,24.30
2018-02-13T06:38:07.707Z,24.20
2018-02-13T06:39:07.160Z,21.30
2018-02-13T06:40:06.980Z,19.90
2018-02-13T06:41:07.051Z,22.20
2018-02-13T06:42:07.017Z,20.90
2018-02-13T06:43:07.708Z,23.50
2018-02-13T06:44:06.763Z,22.30
2018-02-13T06:45:06.696Z,21.90
2018-02-13T06:46:06.802Z,21.20
2018-02-13T06:47:06.631Z,23.20
2018-02-13T06:48:06.599Z,21.40
2018-02-13T06:49:06.649Z,20.10
2018-02-13T06:50:06.551Z,17.10
2018-02-13T06:51:06.438Z,18.00
2018-02-13T06:52:06.378Z,18.10
2018-02-13T06:53:06.331Z,19.10
2018-02-13T06:54:06.329Z,20.10
2018-02-13T06:55:06.284Z,21.10
2018-02-13T06:56:06.308Z,21.40
2018-02-13T06:57:06.235Z,20.10
2018-02-13T06:58:06.102Z,18.80
2018-02-13T06:59:06.167Z,21.50
2018-02-13T07:00:05.990Z,19.40
2018-02-13T07:01:06.073Z,20.00
2018-02-13T07:02:06.085Z,19.30
2018-02-13T07:03:06.706Z,18.60
2018-02-13T07:04:05.903Z,19.10
2018-02-13T07:05:05.708Z,19.90
2018-02-13T07:06:05.672Z,21.30
2018-02-13T07:07:05.651Z,17.50
2018-02-13T07:08:05.638Z,17.10
2018-02-13T07:09:05.555Z,21.40
2018-02-13T07:10:05.500Z,19.20
2018-02-13T07:11:05.420Z,20.30
2018-02-13T07:12:05.376Z,20.00
2018-02-13T07:13:05.335Z,19.30
2018-02-13T07:14:05.349Z,22.20
2018-02-13T07:15:05.243Z,29.80
2018-02-13T07:16:05.232Z,70.60
2018-02-13T07:17:05.282Z,75.50
2018-02-13T07:18:05.239Z,55.20
2018-02-13T07:19:05.086Z,51.30
2018-02-13T07:20:05.139Z,44.20
2018-02-13T07:21:05.101Z,36.30
2018-02-13T07:22:04.925Z,31.10
2018-02-13T07:23:04.825Z,27.10
2018-02-13T07:24:04.806Z,23.10
2018-02-13T07:25:04.829Z,22.60
2018-02-13T07:26:04.891Z,23.40
2018-02-13T07:27:04.700Z,21.70
2018-02-13T07:28:04.616Z,21.20
2018-02-13T07:29:04.555Z,22.30
2018-02-13T07:30:04.528Z,22.40
2018-02-13T07:31:04.461Z,23.10
2018-02-13T07:32:04.479Z,21.40
2018-02-13T07:33:04.368Z,25.60
2018-02-13T07:34:04.402Z,24.60
2018-02-13T07:35:04.422Z,23.00
2018-02-13T07:36:04.346Z,23.20
2018-02-13T07:37:04.172Z,22.20
2018-02-13T07:38:04.174Z,21.70
2018-02-13T07:39:04.078Z,21.20
2018-02-13T07:40:03.991Z,22.10
2018-02-13T07:41:03.969Z,21.70
2018-02-13T07:42:03.955Z,20.20
2018-02-13T07:43:03.863Z,21.40
2018-02-13T07:44:04.005Z,20.60
2018-02-13T07:45:03.954Z,21.90
2018-02-13T07:46:03.918Z,24.80
2018-02-13T07:47:03.710Z,20.10
2018-02-13T07:48:03.677Z,19.70
2018-02-13T07:49:03.597Z,23.60
2018-02-13T07:50:03.710Z,21.10
2018-02-13T07:51:03.533Z,21.70
2018-02-13T07:52:03.451Z,23.30
2018-02-13T07:53:03.563Z,26.80
2018-02-13T07:54:03.349Z,26.00
2018-02-13T07:55:03.355Z,24.60
2018-02-13T07:56:03.231Z,23.40
2018-02-13T07:57:03.236Z,24.90
2018-02-13T07:58:03.194Z,25.20
2018-02-13T07:59:03.130Z,23.20
2018-02-13T08:00:03.187Z,25.20
2018-02-13T08:01:03.148Z,22.40
2018-02-13T08:02:02.991Z,23.00
2018-02-13T08:03:02.971Z,23.50
2018-02-13T08:04:02.928Z,21.80
2018-02-13T08:05:02.853Z,20.10
2018-02-13T08:06:02.965Z,20.90
2018-02-13T08:07:02.750Z,23.90
2018-02-13T08:08:02.712Z,24.40
2018-02-13T08:09:02.645Z,22.90
2018-02-13T08:10:02.739Z,22.40
2018-02-13T08:11:02.574Z,23.60
2018-02-13T08:12:02.536Z,23.40
2018-02-13T08:13:02.464Z,21.50
2018-02-13T08:14:02.427Z,21.00
2018-02-13T08:15:02.443Z,18.30
2018-02-13T08:16:02.430Z,18.80
2018-02-13T08:17:02.382Z,18.70
2018-02-13T08:18:02.360Z,18.30
2018-02-13T08:19:02.275Z,18.00
2018-02-13T08:20:02.254Z,17.70
2018-02-13T08:21:02.106Z,17.70
2018-02-13T08:22:02.150Z,16.70
2018-02-13T08:23:02.109Z,17.10
2018-02-13T08:24:02.024Z,17.10
2018-02-13T08:25:02.100Z,18.00
2018-02-13T08:26:01.889Z,17.80
2018-02-13T08:27:01.870Z,16.70
2018-02-13T08:28:01.836Z,16.70
2018-02-13T08:29:01.958Z,17.00
2018-02-13T08:30:01.717Z,17.00
2018-02-13T08:31:01.738Z,16.70
2018-02-13T08:32:01.656Z,15.50
2018-02-13T08:33:01.586Z,16.90
2018-02-13T08:34:01.549Z,16.40
2018-02-13T08:35:01.521Z,15.00
2018-02-13T08:36:01.474Z,15.00
2018-02-13T08:37:01.464Z,15.10
2018-02-13T08:38:01.425Z,15.50
2018-02-13T08:39:01.457Z,15.30
2018-02-13T08:40:01.347Z,16.00
2018-02-13T08:41:01.304Z,15.60
2018-02-13T08:42:01.219Z,16.20
2018-02-13T08:43:01.188Z,15.00
2018-02-13T08:44:01.137Z,16.50
2018-02-13T08:45:01.138Z,18.80
2018-02-13T08:46:01.039Z,14.80
2018-02-13T08:47:01.014Z,13.50
2018-02-13T08:48:00.996Z,13.40
2018-02-13T08:49:00.925Z,13.50
2018-02-13T08:50:00.889Z,13.00
2018-02-13T08:51:00.830Z,12.40
2018-02-13T08:52:00.812Z,14.40
2018-02-13T08:53:00.922Z,13.80
2018-02-13T08:54:00.996Z,13.10
2018-02-13T08:55:00.683Z,13.00
2018-02-13T08:56:00.657Z,12.20
2018-02-13T08:57:00.610Z,12.80
2018-02-13T08:58:00.661Z,13.20
2018-02-13T08:59:00.583Z,12.70
2018-02-13T09:00:00.507Z,13.90
2018-02-13T09:01:00.467Z,13.40
2018-02-13T09:02:00.434Z,12.60
2018-02-13T09:03:00.390Z,12.20
2018-02-13T09:04:00.337Z,13.20
2018-02-13T09:05:00.331Z,12.60
2018-02-13T09:06:00.285Z,13.50
2018-02-13T09:07:00.251Z,13.10
2018-02-13T09:08:00.200Z,12.90
2018-02-13T09:09:00.232Z,12.60
2018-02-13T09:10:00.140Z,12.80
2018-02-13T09:11:00.108Z,12.80
2018-02-13T09:12:00.066Z,13.30
2018-02-13T09:13:00.010Z,12.40
2018-02-13T09:13:59.992Z,11.90
2018-02-13T09:15:00.055Z,11.90
2018-02-13T09:15:59.918Z,12.70
2018-02-13T09:16:59.896Z,12.40
2018-02-13T09:17:59.907Z,12.00
2018-02-13T09:18:59.832Z,12.80
2018-02-13T09:19:59.799Z,12.50
2018-02-13T09:20:59.742Z,12.10
2018-02-13T09:21:59.773Z,11.60
2018-02-13T09:22:59.672Z,11.60
2018-02-13T09:23:59.663Z,11.80
2018-02-13T09:24:59.740Z,11.40
2018-02-13T09:25:59.560Z,11.50
2018-02-13T09:26:59.559Z,11.10
2018-02-13T09:27:59.528Z,11.60
2018-02-13T09:28:59.550Z,11.60
2018-02-13T09:29:59.502Z,11.70
2018-02-13T09:30:59.481Z,12.10
2018-02-13T09:31:59.413Z,11.70
2018-02-13T09:32:59.351Z,11.40
2018-02-13T09:33:59.342Z,11.50
2018-02-13T09:34:59.290Z,11.30
2018-02-13T09:36:00.232Z,11.50
2018-02-13T09:36:59.346Z,11.40
2018-02-13T09:37:59.329Z,11.60
2018-02-13T09:38:59.356Z,10.90
2018-02-13T09:39:59.182Z,10.90
2018-02-13T09:40:59.210Z,11.30
2018-02-13T09:41:59.162Z,11.20
2018-02-13T09:42:59.050Z,11.60
2018-02-13T09:43:59.207Z,12.10
2018-02-13T09:44:59.091Z,11.20
2018-02-13T09:45:58.989Z,11.30
2018-02-13T09:46:59.040Z,11.80
2018-02-13T09:47:58.907Z,11.70
2018-02-13T09:48:58.876Z,11.10
2018-02-13T09:49:58.841Z,11.10
2018-02-13T09:50:58.855Z,11.40
2018-02-13T09:51:58.784Z,11.20
2018-02-13T09:52:58.882Z,11.60
2018-02-13T09:53:58.869Z,11.30
2018-02-13T09:54:58.695Z,11.60
2018-02-13T09:55:58.669Z,11.20
2018-02-13T09:56:58.748Z,10.20
2018-02-13T09:57:58.620Z,10.60
2018-02-13T09:58:58.701Z,11.20
2018-02-13T09:59:58.707Z,10.70
2018-02-13T10:00:58.587Z,11.00
2018-02-13T10:01:58.562Z,11.00
2018-02-13T10:02:58.474Z,10.50
2018-02-13T10:03:58.482Z,10.50
2018-02-13T10:04:58.428Z,11.30
2018-02-13T10:05:58.416Z,11.10
2018-02-13T10:06:58.520Z,10.80
2018-02-13T10:07:58.525Z,10.90
2018-02-13T10:08:58.346Z,10.20
2018-02-13T10:09:58.300Z,10.30
2018-02-13T10:10:58.302Z,11.10
2018-02-13T10:11:58.323Z,10.30
2018-02-13T10:12:58.224Z,10.90
2018-02-13T10:13:58.359Z,10.10
2018-02-13T10:14:58.174Z,10.40
2018-02-13T10:15:58.159Z,10.80
2018-02-13T10:16:58.253Z,10.40
2018-02-13T10:17:58.102Z,10.30
2018-02-13T10:18:58.060Z,10.50
2018-02-13T10:19:58.042Z,10.50
2018-02-13T10:20:58.097Z,10.00
2018-02-13T10:21:57.960Z,9.90
2018-02-13T10:22:58.090Z,11.10
2018-02-13T10:23:57.911Z,13.90
2018-02-13T10:24:57.895Z,10.90
2018-02-13T10:25:57.983Z,10.20
2018-02-13T10:26:57.884Z,10.50
2018-02-13T10:27:57.850Z,11.10
2018-02-13T10:28:57.841Z,10.70
2018-02-13T10:29:57.838Z,10.90
2018-02-13T10:30:57.789Z,11.20
2018-02-13T10:31:58.319Z,10.60
2018-02-13T10:32:57.666Z,11.30
2018-02-13T10:33:57.681Z,10.80
2018-02-13T10:34:57.650Z,10.70
2018-02-13T10:35:57.660Z,11.00
2018-02-13T10:36:57.650Z,10.20
2018-02-13T10:37:57.622Z,10.30
2018-02-13T10:38:57.519Z,10.90
2018-02-13T10:39:57.504Z,10.80
2018-02-13T10:40:57.544Z,11.00
2018-02-13T10:41:58.261Z,10.70
2018-02-13T10:42:57.420Z,9.70
2018-02-13T10:43:57.384Z,10.10
2018-02-13T10:44:57.370Z,10.20
2018-02-13T10:45:57.367Z,10.10
2018-02-13T10:46:57.328Z,10.80
2018-02-13T10:47:57.423Z,9.50
2018-02-13T10:48:57.263Z,9.60
2018-02-13T10:49:57.241Z,9.90
2018-02-13T10:50:57.260Z,10.50
2018-02-13T10:51:57.212Z,9.20
2018-02-13T10:52:57.138Z,9.50
2018-02-13T10:53:57.260Z,8.60
2018-02-13T10:54:57.128Z,9.30
2018-02-13T10:55:57.066Z,9.10
2018-02-13T10:56:57.040Z,8.80
2018-02-13T10:57:57.050Z,8.90
2018-02-13T10:58:57.012Z,8.80
2018-02-13T10:59:57.074Z,8.50
2018-02-13T11:00:56.948Z,9.10
2018-02-13T11:01:56.924Z,8.90
2018-02-13T11:02:56.941Z,8.50
2018-02-13T11:03:56.954Z,8.30
2018-02-13T11:04:56.859Z,8.10
2018-02-13T11:05:56.787Z,8.50
2018-02-13T11:06:56.776Z,8.70
2018-02-13T11:07:56.748Z,8.80
2018-02-13T11:08:56.757Z,8.80
2018-02-13T11:09:56.721Z,8.10
2018-02-13T11:10:56.662Z,8.80
2018-02-13T11:11:56.812Z,7.60
2018-02-13T11:12:56.642Z,7.20
2018-02-13T11:13:56.741Z,7.70
2018-02-13T11:14:56.617Z,8.30
2018-02-13T11:15:56.569Z,7.80
2018-02-13T11:16:56.541Z,7.90
2018-02-13T11:17:56.512Z,8.10
2018-02-13T11:18:56.576Z,7.90
2018-02-13T11:19:56.464Z,7.50
2018-02-13T11:20:56.498Z,7.80
2018-02-13T11:21:56.545Z,7.40
2018-02-13T11:22:56.352Z,7.80
2018-02-13T11:23:56.320Z,7.60
2018-02-13T11:24:56.454Z,7.70
2018-02-13T11:25:56.464Z,7.00
2018-02-13T11:26:56.249Z,7.80
2018-02-13T11:27:56.267Z,7.40
2018-02-13T11:28:56.229Z,7.40
2018-02-13T11:29:56.231Z,8.10
2018-02-13T11:30:56.238Z,7.50
2018-02-13T11:31:56.223Z,7.60
2018-02-13T11:32:56.263Z,8.10
2018-02-13T11:33:56.171Z,7.80
2018-02-13T11:34:56.061Z,8.40
2018-02-13T11:35:56.015Z,7.50
2018-02-13T11:36:56.077Z,7.70
2018-02-13T11:37:56.057Z,8.20
2018-02-13T11:38:55.995Z,7.90
2018-02-13T11:39:56.060Z,7.70
2018-02-13T11:40:55.851Z,7.70
2018-02-13T11:41:55.844Z,7.80
2018-02-13T11:42:55.887Z,7.10
2018-02-13T11:43:55.819Z,7.70
2018-02-13T11:44:55.796Z,7.90
2018-02-13T11:45:55.856Z,7.20
2018-02-13T11:46:55.686Z,6.30
2018-02-13T11:47:55.735Z,6.90
2018-02-13T11:48:55.650Z,6.90
2018-02-13T11:49:55.631Z,6.70
2018-02-13T11:50:55.594Z,7.20
2018-02-13T11:51:55.781Z,6.80
2018-02-13T11:52:55.661Z,6.80
2018-02-13T11:53:55.582Z,6.10
2018-02-13T11:54:56.294Z,7.00
2018-02-13T11:55:55.639Z,7.10
2018-02-13T11:56:55.450Z,6.80
2018-02-13T11:57:55.600Z,6.80
2018-02-13T11:58:55.570Z,6.00
2018-02-13T11:59:55.339Z,6.30
2018-02-13T12:00:55.384Z,5.90
2018-02-13T12:01:55.472Z,6.10
2018-02-13T12:02:55.296Z,5.70
2018-02-13T12:03:55.341Z,6.00
2018-02-13T12:04:55.382Z,5.70
2018-02-13T12:05:55.294Z,5.80
2018-02-13T12:06:55.142Z,5.90
2018-02-13T12:07:55.336Z,5.20
2018-02-13T12:08:55.078Z,5.90
2018-02-13T12:09:55.798Z,4.90
2018-02-13T12:10:55.085Z,4.80
2018-02-13T12:11:55.107Z,4.70
2018-02-13T12:12:55.017Z,5.00
2018-02-13T12:13:55.009Z,5.00
2018-02-13T12:14:55.027Z,5.20
2018-02-13T12:15:54.872Z,4.80
2018-02-13T12:16:54.868Z,4.10
2018-02-13T12:17:54.842Z,4.40
2018-02-13T12:18:54.852Z,4.20
2018-02-13T12:19:54.794Z,4.30
2018-02-13T12:20:54.891Z,4.20
2018-02-13T12:21:54.889Z,4.30
2018-02-13T12:22:54.848Z,4.70
2018-02-13T12:23:54.750Z,4.70
2018-02-13T12:24:54.655Z,4.80
2018-02-13T12:25:54.679Z,4.10
2018-02-13T12:26:54.563Z,4.30
2018-02-13T12:27:54.586Z,4.30
2018-02-13T12:28:54.679Z,3.90
2018-02-13T12:29:55.310Z,3.50
2018-02-13T12:30:54.528Z,3.40
2018-02-13T12:31:54.526Z,2.80
2018-02-13T12:32:54.401Z,2.80
2018-02-13T12:33:54.464Z,3.20
2018-02-13T12:34:54.352Z,3.20
2018-02-13T12:35:54.332Z,3.10
2018-02-13T12:36:54.358Z,3.10
2018-02-13T12:37:54.366Z,3.60
2018-02-13T12:38:54.250Z,3.20
2018-02-13T12:39:54.217Z,3.40
2018-02-13T12:40:54.153Z,3.00
2018-02-13T12:41:54.141Z,3.80
2018-02-13T12:42:54.156Z,3.90
2018-02-13T12:43:54.819Z,3.70
2018-02-13T12:44:54.064Z,3.20
2018-02-13T12:45:54.074Z,3.60
2018-02-13T12:46:53.956Z,3.40
2018-02-13T12:47:54.120Z,3.40
2018-02-13T12:48:53.892Z,3.40
2018-02-13T12:49:54.026Z,3.30
2018-02-13T12:50:53.842Z,3.10
2018-02-13T12:51:54.325Z,3.30
2018-02-13T12:52:53.737Z,3.60
2018-02-13T12:53:53.774Z,2.90
2018-02-13T12:54:53.876Z,3.20
2018-02-13T12:55:53.705Z,2.90